sensor_id;sensor_type;location;lat;lon;timestamp;P1;durP1;ratioP1;P2;durP2;ratioP2
45764;SDS011;31474;45.332;10.230;2023-06-10T00:01:28;18.83;;;14.52;;
45764;SDS011;31474;45.332;10.230;2023-06-10T00:03:55;20.08;;;15.48;;
45764;SDS011;31474;45.332;10.230;2023-06-10T00:06:20;18.27;;;14.77;;
45764;SDS011;31474;45.332;10.230;2023-06-10T00:08:49;19.83;;;14.27;;
45764;SDS011;31474;45.332;10.230;2023-06-10T00:11:15;20.65;;;15.75;;
45764;SDS011;31474;45.332;10.230;2023-06-10T00:13:41;20.33;;;15.30;;
45764;SDS011;31474;45.332;10.230;2023-06-10T00:16:06;18.02;;;14.88;;
45764;SDS011;31474;45.332;10.230;2023-06-10T00:18:32;21.17;;;14.80;;
45764;SDS011;31474;45.332;10.230;2023-06-10T00:20:58;20.70;;;14.68;;
45764;SDS011;31474;45.332;10.230;2023-06-10T00:23:29;21.65;;;14.68;;
45764;SDS011;31474;45.332;10.230;2023-06-10T00:26:03;18.08;;;14.10;;
45764;SDS011;31474;45.332;10.230;2023-06-10T00:28:29;18.15;;;14.80;;
45764;SDS011;31474;45.332;10.230;2023-06-10T00:30:55;18.95;;;14.95;;
45764;SDS011;31474;45.332;10.230;2023-06-10T00:33:22;20.80;;;15.25;;
45764;SDS011;31474;45.332;10.230;2023-06-10T00:35:48;17.63;;;14.63;;
45764;SDS011;31474;45.332;10.230;2023-06-10T00:38:13;19.17;;;15.80;;
45764;SDS011;31474;45.332;10.230;2023-06-10T00:40:42;19.70;;;15.07;;
45764;SDS011;31474;45.332;10.230;2023-06-10T00:43:08;22.13;;;16.20;;
45764;SDS011;31474;45.332;10.230;2023-06-10T00:45:33;18.98;;;14.65;;
45764;SDS011;31474;45.332;10.230;2023-06-10T00:47:59;17.23;;;14.88;;
45764;SDS011;31474;45.332;10.230;2023-06-10T00:50:26;19.33;;;15.02;;
45764;SDS011;31474;45.332;10.230;2023-06-10T00:52:53;21.75;;;15.68;;
45764;SDS011;31474;45.332;10.230;2023-06-10T00:55:19;19.75;;;14.93;;
45764;SDS011;31474;45.332;10.230;2023-06-10T00:57:46;23.05;;;16.00;;
45764;SDS011;31474;45.332;10.230;2023-06-10T01:00:13;24.73;;;15.18;;
45764;SDS011;31474;45.332;10.230;2023-06-10T01:02:41;19.75;;;14.80;;
45764;SDS011;31474;45.332;10.230;2023-06-10T01:05:10;19.17;;;15.52;;
45764;SDS011;31474;45.332;10.230;2023-06-10T01:07:38;23.77;;;16.73;;
45764;SDS011;31474;45.332;10.230;2023-06-10T01:10:20;23.10;;;16.92;;
45764;SDS011;31474;45.332;10.230;2023-06-10T01:12:59;20.92;;;17.00;;
45764;SDS011;31474;45.332;10.230;2023-06-10T01:15:31;23.88;;;16.55;;
45764;SDS011;31474;45.332;10.230;2023-06-10T01:18:01;21.40;;;17.55;;
45764;SDS011;31474;45.332;10.230;2023-06-10T01:20:30;22.70;;;18.38;;
45764;SDS011;31474;45.332;10.230;2023-06-10T01:23:00;24.27;;;17.13;;
45764;SDS011;31474;45.332;10.230;2023-06-10T01:25:28;22.48;;;17.75;;
45764;SDS011;31474;45.332;10.230;2023-06-10T01:30:35;24.25;;;18.70;;
45764;SDS011;31474;45.332;10.230;2023-06-10T01:33:07;24.98;;;18.63;;
45764;SDS011;31474;45.332;10.230;2023-06-10T01:35:35;25.25;;;18.33;;
45764;SDS011;31474;45.332;10.230;2023-06-10T01:38:03;24.23;;;19.10;;
45764;SDS011;31474;45.332;10.230;2023-06-10T01:40:29;25.98;;;19.23;;
45764;SDS011;31474;45.332;10.230;2023-06-10T01:42:56;23.25;;;17.70;;
45764;SDS011;31474;45.332;10.230;2023-06-10T01:45:22;24.02;;;18.42;;
45764;SDS011;31474;45.332;10.230;2023-06-10T01:47:48;25.20;;;18.30;;
45764;SDS011;31474;45.332;10.230;2023-06-10T01:50:13;23.13;;;18.95;;
45764;SDS011;31474;45.332;10.230;2023-06-10T01:52:41;24.45;;;18.70;;
45764;SDS011;31474;45.332;10.230;2023-06-10T01:55:07;23.77;;;18.70;;
45764;SDS011;31474;45.332;10.230;2023-06-10T01:57:32;23.52;;;18.55;;
45764;SDS011;31474;45.332;10.230;2023-06-10T01:59:58;27.42;;;20.33;;
45764;SDS011;31474;45.332;10.230;2023-06-10T02:02:24;26.20;;;19.23;;
45764;SDS011;31474;45.332;10.230;2023-06-10T02:04:50;26.55;;;20.02;;
45764;SDS011;31474;45.332;10.230;2023-06-10T02:07:15;25.95;;;19.80;;
45764;SDS011;31474;45.332;10.230;2023-06-10T02:09:41;26.73;;;20.50;;
45764;SDS011;31474;45.332;10.230;2023-06-10T02:12:07;26.38;;;20.75;;
45764;SDS011;31474;45.332;10.230;2023-06-10T02:14:33;27.42;;;20.30;;
45764;SDS011;31474;45.332;10.230;2023-06-10T02:16:59;27.27;;;20.75;;
45764;SDS011;31474;45.332;10.230;2023-06-10T02:19:25;26.15;;;20.17;;
45764;SDS011;31474;45.332;10.230;2023-06-10T02:21:51;29.75;;;20.52;;
45764;SDS011;31474;45.332;10.230;2023-06-10T02:24:17;30.33;;;19.13;;
45764;SDS011;31474;45.332;10.230;2023-06-10T02:26:43;24.90;;;19.23;;
45764;SDS011;31474;45.332;10.230;2023-06-10T02:29:09;32.45;;;21.05;;
45764;SDS011;31474;45.332;10.230;2023-06-10T02:31:34;24.92;;;20.52;;
45764;SDS011;31474;45.332;10.230;2023-06-10T02:34:00;26.23;;;20.17;;
45764;SDS011;31474;45.332;10.230;2023-06-10T02:36:28;29.50;;;21.23;;
45764;SDS011;31474;45.332;10.230;2023-06-10T02:38:53;27.70;;;21.67;;
45764;SDS011;31474;45.332;10.230;2023-06-10T02:41:19;26.10;;;21.38;;
45764;SDS011;31474;45.332;10.230;2023-06-10T02:43:46;25.17;;;19.83;;
45764;SDS011;31474;45.332;10.230;2023-06-10T02:46:12;28.02;;;20.85;;
45764;SDS011;31474;45.332;10.230;2023-06-10T02:48:41;25.73;;;21.08;;
45764;SDS011;31474;45.332;10.230;2023-06-10T02:51:11;24.65;;;19.25;;
45764;SDS011;31474;45.332;10.230;2023-06-10T02:53:37;27.08;;;20.30;;
45764;SDS011;31474;45.332;10.230;2023-06-10T02:56:03;28.27;;;20.73;;
45764;SDS011;31474;45.332;10.230;2023-06-10T02:58:29;26.48;;;20.63;;
45764;SDS011;31474;45.332;10.230;2023-06-10T03:00:54;27.77;;;21.00;;
45764;SDS011;31474;45.332;10.230;2023-06-10T03:03:20;30.63;;;21.13;;
45764;SDS011;31474;45.332;10.230;2023-06-10T03:05:47;29.33;;;21.45;;
45764;SDS011;31474;45.332;10.230;2023-06-10T03:08:13;28.65;;;21.35;;
45764;SDS011;31474;45.332;10.230;2023-06-10T03:10:39;27.60;;;21.77;;
45764;SDS011;31474;45.332;10.230;2023-06-10T03:13:05;27.65;;;20.70;;
45764;SDS011;31474;45.332;10.230;2023-06-10T03:15:30;26.67;;;20.95;;
45764;SDS011;31474;45.332;10.230;2023-06-10T03:17:58;27.05;;;19.58;;
45764;SDS011;31474;45.332;10.230;2023-06-10T03:20:25;25.17;;;20.23;;
45764;SDS011;31474;45.332;10.230;2023-06-10T03:22:52;30.35;;;22.52;;
45764;SDS011;31474;45.332;10.230;2023-06-10T03:25:18;28.42;;;22.00;;
45764;SDS011;31474;45.332;10.230;2023-06-10T03:27:45;27.15;;;21.05;;
45764;SDS011;31474;45.332;10.230;2023-06-10T03:30:12;25.65;;;20.95;;
45764;SDS011;31474;45.332;10.230;2023-06-10T03:32:38;24.55;;;20.15;;
45764;SDS011;31474;45.332;10.230;2023-06-10T03:35:04;24.85;;;20.33;;
45764;SDS011;31474;45.332;10.230;2023-06-10T03:37:30;24.73;;;19.83;;
45764;SDS011;31474;45.332;10.230;2023-06-10T03:39:56;25.90;;;19.98;;
45764;SDS011;31474;45.332;10.230;2023-06-10T03:42:21;28.90;;;20.60;;
45764;SDS011;31474;45.332;10.230;2023-06-10T03:44:47;26.55;;;20.42;;
45764;SDS011;31474;45.332;10.230;2023-06-10T03:47:13;28.20;;;20.50;;
45764;SDS011;31474;45.332;10.230;2023-06-10T03:49:38;24.30;;;19.85;;
45764;SDS011;31474;45.332;10.230;2023-06-10T03:52:05;26.42;;;20.75;;
45764;SDS011;31474;45.332;10.230;2023-06-10T03:54:31;27.08;;;18.95;;
45764;SDS011;31474;45.332;10.230;2023-06-10T03:56:59;25.30;;;19.35;;
45764;SDS011;31474;45.332;10.230;2023-06-10T03:59:25;27.98;;;17.95;;
45764;SDS011;31474;45.332;10.230;2023-06-10T04:01:51;25.30;;;18.17;;
45764;SDS011;31474;45.332;10.230;2023-06-10T04:04:16;25.77;;;18.30;;
45764;SDS011;31474;45.332;10.230;2023-06-10T04:06:42;28.77;;;18.70;;
45764;SDS011;31474;45.332;10.230;2023-06-10T04:09:09;26.05;;;18.52;;
45764;SDS011;31474;45.332;10.230;2023-06-10T04:11:35;23.50;;;17.45;;
45764;SDS011;31474;45.332;10.230;2023-06-10T04:14:01;27.60;;;17.60;;
45764;SDS011;31474;45.332;10.230;2023-06-10T04:16:27;24.40;;;17.52;;
45764;SDS011;31474;45.332;10.230;2023-06-10T04:18:53;22.48;;;17.73;;
45764;SDS011;31474;45.332;10.230;2023-06-10T04:21:19;23.58;;;18.10;;
45764;SDS011;31474;45.332;10.230;2023-06-10T04:23:45;23.83;;;16.80;;
45764;SDS011;31474;45.332;10.230;2023-06-10T04:26:11;21.80;;;16.65;;
45764;SDS011;31474;45.332;10.230;2023-06-10T04:28:37;21.55;;;16.67;;
45764;SDS011;31474;45.332;10.230;2023-06-10T04:31:03;20.98;;;16.10;;
45764;SDS011;31474;45.332;10.230;2023-06-10T04:33:29;20.30;;;15.65;;
45764;SDS011;31474;45.332;10.230;2023-06-10T04:35:55;21.45;;;15.30;;
45764;SDS011;31474;45.332;10.230;2023-06-10T04:38:21;18.98;;;14.63;;
45764;SDS011;31474;45.332;10.230;2023-06-10T04:40:46;18.48;;;14.60;;
45764;SDS011;31474;45.332;10.230;2023-06-10T04:43:13;18.70;;;14.27;;
45764;SDS011;31474;45.332;10.230;2023-06-10T04:45:38;16.80;;;12.80;;
45764;SDS011;31474;45.332;10.230;2023-06-10T04:48:04;17.95;;;13.00;;
45764;SDS011;31474;45.332;10.230;2023-06-10T04:50:30;20.20;;;14.13;;
45764;SDS011;31474;45.332;10.230;2023-06-10T04:52:58;18.85;;;12.88;;
45764;SDS011;31474;45.332;10.230;2023-06-10T04:55:23;19.67;;;13.10;;
45764;SDS011;31474;45.332;10.230;2023-06-10T04:57:50;16.17;;;12.60;;
45764;SDS011;31474;45.332;10.230;2023-06-10T05:00:16;15.07;;;11.35;;
45764;SDS011;31474;45.332;10.230;2023-06-10T05:02:42;16.73;;;13.32;;
45764;SDS011;31474;45.332;10.230;2023-06-10T05:05:08;16.85;;;12.18;;
45764;SDS011;31474;45.332;10.230;2023-06-10T05:07:34;23.23;;;14.43;;
45764;SDS011;31474;45.332;10.230;2023-06-10T05:09:59;18.23;;;13.02;;
45764;SDS011;31474;45.332;10.230;2023-06-10T05:12:25;19.48;;;13.30;;
45764;SDS011;31474;45.332;10.230;2023-06-10T05:14:51;16.50;;;13.48;;
45764;SDS011;31474;45.332;10.230;2023-06-10T05:17:17;17.30;;;14.30;;
45764;SDS011;31474;45.332;10.230;2023-06-10T05:19:42;17.85;;;13.25;;
45764;SDS011;31474;45.332;10.230;2023-06-10T05:22:09;15.35;;;12.55;;
45764;SDS011;31474;45.332;10.230;2023-06-10T05:24:35;20.77;;;14.57;;
45764;SDS011;31474;45.332;10.230;2023-06-10T05:27:00;19.13;;;14.18;;
45764;SDS011;31474;45.332;10.230;2023-06-10T05:29:26;23.63;;;13.25;;
45764;SDS011;31474;45.332;10.230;2023-06-10T05:31:52;18.67;;;13.85;;
45764;SDS011;31474;45.332;10.230;2023-06-10T05:34:17;17.40;;;13.27;;
45764;SDS011;31474;45.332;10.230;2023-06-10T05:36:43;16.00;;;12.18;;
45764;SDS011;31474;45.332;10.230;2023-06-10T05:39:09;17.92;;;13.50;;
45764;SDS011;31474;45.332;10.230;2023-06-10T05:41:35;17.15;;;12.20;;
45764;SDS011;31474;45.332;10.230;2023-06-10T05:44:01;17.55;;;12.30;;
45764;SDS011;31474;45.332;10.230;2023-06-10T05:46:27;14.60;;;11.50;;
45764;SDS011;31474;45.332;10.230;2023-06-10T05:48:53;14.23;;;10.18;;
45764;SDS011;31474;45.332;10.230;2023-06-10T05:51:19;14.13;;;11.35;;
45764;SDS011;31474;45.332;10.230;2023-06-10T05:53:45;15.38;;;10.52;;
45764;SDS011;31474;45.332;10.230;2023-06-10T05:56:11;20.25;;;10.80;;
45764;SDS011;31474;45.332;10.230;2023-06-10T05:58:38;16.33;;;11.15;;
45764;SDS011;31474;45.332;10.230;2023-06-10T06:01:03;12.43;;;10.25;;
45764;SDS011;31474;45.332;10.230;2023-06-10T06:03:29;18.67;;;10.07;;
45764;SDS011;31474;45.332;10.230;2023-06-10T06:05:55;15.90;;;10.98;;
45764;SDS011;31474;45.332;10.230;2023-06-10T06:08:21;11.98;;;9.65;;
45764;SDS011;31474;45.332;10.230;2023-06-10T06:10:46;16.15;;;10.18;;
45764;SDS011;31474;45.332;10.230;2023-06-10T06:13:15;14.73;;;9.88;;
45764;SDS011;31474;45.332;10.230;2023-06-10T06:15:40;13.75;;;9.93;;
45764;SDS011;31474;45.332;10.230;2023-06-10T06:18:06;14.43;;;10.35;;
45764;SDS011;31474;45.332;10.230;2023-06-10T06:20:32;11.95;;;9.25;;
45764;SDS011;31474;45.332;10.230;2023-06-10T06:22:57;17.23;;;9.27;;
45764;SDS011;31474;45.332;10.230;2023-06-10T06:25:23;12.23;;;8.70;;
45764;SDS011;31474;45.332;10.230;2023-06-10T06:27:48;13.70;;;9.32;;
45764;SDS011;31474;45.332;10.230;2023-06-10T06:30:14;14.40;;;8.73;;
45764;SDS011;31474;45.332;10.230;2023-06-10T06:32:40;12.93;;;8.20;;
45764;SDS011;31474;45.332;10.230;2023-06-10T06:35:06;13.50;;;8.57;;
45764;SDS011;31474;45.332;10.230;2023-06-10T06:37:33;13.52;;;9.45;;
45764;SDS011;31474;45.332;10.230;2023-06-10T06:39:59;13.25;;;8.55;;
45764;SDS011;31474;45.332;10.230;2023-06-10T06:42:25;13.95;;;9.07;;
45764;SDS011;31474;45.332;10.230;2023-06-10T06:44:51;12.60;;;8.20;;
45764;SDS011;31474;45.332;10.230;2023-06-10T06:47:16;16.73;;;7.82;;
45764;SDS011;31474;45.332;10.230;2023-06-10T06:49:45;12.40;;;8.45;;
45764;SDS011;31474;45.332;10.230;2023-06-10T06:52:12;13.38;;;8.60;;
45764;SDS011;31474;45.332;10.230;2023-06-10T06:54:38;12.50;;;8.25;;
45764;SDS011;31474;45.332;10.230;2023-06-10T06:57:04;13.48;;;8.27;;
45764;SDS011;31474;45.332;10.230;2023-06-10T06:59:30;11.27;;;7.57;;
45764;SDS011;31474;45.332;10.230;2023-06-10T07:01:56;13.35;;;7.63;;
45764;SDS011;31474;45.332;10.230;2023-06-10T07:04:22;14.30;;;7.43;;
45764;SDS011;31474;45.332;10.230;2023-06-10T07:06:48;14.93;;;8.13;;
45764;SDS011;31474;45.332;10.230;2023-06-10T07:09:13;11.48;;;7.35;;
45764;SDS011;31474;45.332;10.230;2023-06-10T07:11:39;11.07;;;8.10;;
45764;SDS011;31474;45.332;10.230;2023-06-10T07:14:05;11.45;;;7.60;;
45764;SDS011;31474;45.332;10.230;2023-06-10T07:16:31;13.50;;;8.32;;
45764;SDS011;31474;45.332;10.230;2023-06-10T07:18:57;11.45;;;8.85;;
45764;SDS011;31474;45.332;10.230;2023-06-10T07:21:22;9.68;;;7.43;;
45764;SDS011;31474;45.332;10.230;2023-06-10T07:23:48;14.13;;;7.55;;
45764;SDS011;31474;45.332;10.230;2023-06-10T07:26:17;12.73;;;7.78;;
45764;SDS011;31474;45.332;10.230;2023-06-10T07:28:43;13.02;;;8.48;;
45764;SDS011;31474;45.332;10.230;2023-06-10T07:31:08;11.75;;;7.53;;
45764;SDS011;31474;45.332;10.230;2023-06-10T07:33:34;11.20;;;8.27;;
45764;SDS011;31474;45.332;10.230;2023-06-10T07:36:01;14.45;;;7.80;;
45764;SDS011;31474;45.332;10.230;2023-06-10T07:38:27;11.63;;;8.30;;
45764;SDS011;31474;45.332;10.230;2023-06-10T07:40:53;10.32;;;7.53;;
45764;SDS011;31474;45.332;10.230;2023-06-10T07:43:18;12.60;;;9.18;;
45764;SDS011;31474;45.332;10.230;2023-06-10T07:45:44;10.73;;;7.63;;
45764;SDS011;31474;45.332;10.230;2023-06-10T07:48:10;12.30;;;8.50;;
45764;SDS011;31474;45.332;10.230;2023-06-10T07:50:36;10.15;;;7.35;;
45764;SDS011;31474;45.332;10.230;2023-06-10T07:53:01;10.18;;;7.13;;
45764;SDS011;31474;45.332;10.230;2023-06-10T07:55:28;10.27;;;7.03;;
45764;SDS011;31474;45.332;10.230;2023-06-10T07:57:53;10.65;;;7.63;;
45764;SDS011;31474;45.332;10.230;2023-06-10T08:00:20;13.18;;;7.88;;
45764;SDS011;31474;45.332;10.230;2023-06-10T08:02:46;11.65;;;7.28;;
45764;SDS011;31474;45.332;10.230;2023-06-10T08:05:12;12.60;;;8.35;;
45764;SDS011;31474;45.332;10.230;2023-06-10T08:07:40;10.18;;;7.88;;
45764;SDS011;31474;45.332;10.230;2023-06-10T08:10:06;18.30;;;8.43;;
45764;SDS011;31474;45.332;10.230;2023-06-10T08:12:33;9.27;;;7.30;;
45764;SDS011;31474;45.332;10.230;2023-06-10T08:14:59;12.40;;;7.03;;
45764;SDS011;31474;45.332;10.230;2023-06-10T08:17:25;9.93;;;7.70;;
45764;SDS011;31474;45.332;10.230;2023-06-10T08:19:51;13.63;;;8.07;;
45764;SDS011;31474;45.332;10.230;2023-06-10T08:22:16;12.57;;;8.48;;
45764;SDS011;31474;45.332;10.230;2023-06-10T08:24:42;13.40;;;7.70;;
45764;SDS011;31474;45.332;10.230;2023-06-10T08:27:08;11.23;;;7.88;;
45764;SDS011;31474;45.332;10.230;2023-06-10T08:29:33;13.32;;;7.90;;
45764;SDS011;31474;45.332;10.230;2023-06-10T08:31:59;7.47;;;6.38;;
45764;SDS011;31474;45.332;10.230;2023-06-10T08:34:25;10.60;;;6.35;;
45764;SDS011;31474;45.332;10.230;2023-06-10T08:36:51;8.70;;;5.57;;
45764;SDS011;31474;45.332;10.230;2023-06-10T08:39:18;11.32;;;5.63;;
45764;SDS011;31474;45.332;10.230;2023-06-10T08:41:56;7.13;;;5.53;;
45764;SDS011;31474;45.332;10.230;2023-06-10T08:44:31;6.85;;;5.05;;
45764;SDS011;31474;45.332;10.230;2023-06-10T08:47:00;6.75;;;4.93;;
45764;SDS011;31474;45.332;10.230;2023-06-10T08:49:31;7.55;;;5.60;;
45764;SDS011;31474;45.332;10.230;2023-06-10T08:52:02;6.55;;;4.55;;
45764;SDS011;31474;45.332;10.230;2023-06-10T08:54:30;5.70;;;4.70;;
45764;SDS011;31474;45.332;10.230;2023-06-10T08:56:59;9.32;;;4.60;;
45764;SDS011;31474;45.332;10.230;2023-06-10T08:59:28;6.97;;;3.95;;
45764;SDS011;31474;45.332;10.230;2023-06-10T09:01:54;10.00;;;4.72;;
45764;SDS011;31474;45.332;10.230;2023-06-10T09:04:20;5.00;;;4.10;;
45764;SDS011;31474;45.332;10.230;2023-06-10T09:06:46;6.97;;;4.63;;
45764;SDS011;31474;45.332;10.230;2023-06-10T09:09:14;7.07;;;4.07;;
45764;SDS011;31474;45.332;10.230;2023-06-10T09:11:41;4.47;;;3.70;;
45764;SDS011;31474;45.332;10.230;2023-06-10T09:14:07;5.30;;;3.40;;
45764;SDS011;31474;45.332;10.230;2023-06-10T09:16:33;9.25;;;4.13;;
45764;SDS011;31474;45.332;10.230;2023-06-10T09:18:59;8.93;;;3.90;;
45764;SDS011;31474;45.332;10.230;2023-06-10T09:21:25;5.63;;;3.97;;
45764;SDS011;31474;45.332;10.230;2023-06-10T09:23:51;10.05;;;5.43;;
45764;SDS011;31474;45.332;10.230;2023-06-10T09:26:17;7.97;;;5.30;;
45764;SDS011;31474;45.332;10.230;2023-06-10T09:28:49;8.73;;;4.75;;
45764;SDS011;31474;45.332;10.230;2023-06-10T09:31:15;7.20;;;4.90;;
45764;SDS011;31474;45.332;10.230;2023-06-10T09:33:43;10.20;;;5.55;;
45764;SDS011;31474;45.332;10.230;2023-06-10T09:36:09;10.77;;;5.95;;
45764;SDS011;31474;45.332;10.230;2023-06-10T09:38:35;7.65;;;5.05;;
45764;SDS011;31474;45.332;10.230;2023-06-10T09:41:02;9.45;;;4.93;;
45764;SDS011;31474;45.332;10.230;2023-06-10T09:43:39;8.48;;;4.80;;
45764;SDS011;31474;45.332;10.230;2023-06-10T09:46:18;13.10;;;5.18;;
45764;SDS011;31474;45.332;10.230;2023-06-10T09:48:46;10.80;;;5.13;;
45764;SDS011;31474;45.332;10.230;2023-06-10T09:51:15;9.45;;;6.28;;
45764;SDS011;31474;45.332;10.230;2023-06-10T09:53:48;7.22;;;5.13;;
45764;SDS011;31474;45.332;10.230;2023-06-10T09:56:15;8.05;;;5.75;;
45764;SDS011;31474;45.332;10.230;2023-06-10T09:58:41;8.25;;;5.45;;
45764;SDS011;31474;45.332;10.230;2023-06-10T10:01:09;11.93;;;6.63;;
45764;SDS011;31474;45.332;10.230;2023-06-10T10:03:45;7.25;;;5.43;;
45764;SDS011;31474;45.332;10.230;2023-06-10T10:06:16;11.15;;;6.72;;
45764;SDS011;31474;45.332;10.230;2023-06-10T10:08:43;11.30;;;6.60;;
45764;SDS011;31474;45.332;10.230;2023-06-10T10:11:09;13.43;;;6.20;;
45764;SDS011;31474;45.332;10.230;2023-06-10T10:13:35;8.68;;;6.40;;
45764;SDS011;31474;45.332;10.230;2023-06-10T10:16:21;11.38;;;6.38;;
45764;SDS011;31474;45.332;10.230;2023-06-10T10:18:54;14.57;;;6.97;;
45764;SDS011;31474;45.332;10.230;2023-06-10T10:21:23;10.25;;;5.57;;
45764;SDS011;31474;45.332;10.230;2023-06-10T10:26:46;9.90;;;5.72;;
45764;SDS011;31474;45.332;10.230;2023-06-10T10:29:16;7.57;;;5.63;;
45764;SDS011;31474;45.332;10.230;2023-06-10T10:31:50;11.88;;;6.13;;
45764;SDS011;31474;45.332;10.230;2023-06-10T10:34:21;13.40;;;5.47;;
45764;SDS011;31474;45.332;10.230;2023-06-10T10:36:55;10.65;;;5.10;;
45764;SDS011;31474;45.332;10.230;2023-06-10T10:39:21;9.93;;;5.68;;
45764;SDS011;31474;45.332;10.230;2023-06-10T10:41:47;7.85;;;4.63;;
45764;SDS011;31474;45.332;10.230;2023-06-10T10:44:14;12.30;;;4.90;;
45764;SDS011;31474;45.332;10.230;2023-06-10T10:46:42;10.18;;;5.20;;
45764;SDS011;31474;45.332;10.230;2023-06-10T10:49:19;6.20;;;4.55;;
45764;SDS011;31474;45.332;10.230;2023-06-10T10:51:57;5.60;;;4.32;;
45764;SDS011;31474;45.332;10.230;2023-06-10T10:59:45;5.80;;;4.60;;
45764;SDS011;31474;45.332;10.230;2023-06-10T11:05:08;6.93;;;4.90;;
45764;SDS011;31474;45.332;10.230;2023-06-10T11:07:39;8.55;;;4.80;;
45764;SDS011;31474;45.332;10.230;2023-06-10T11:10:16;11.07;;;5.53;;
45764;SDS011;31474;45.332;10.230;2023-06-10T11:15:13;9.35;;;5.28;;
45764;SDS011;31474;45.332;10.230;2023-06-10T11:26:12;16.30;;;5.93;;
45764;SDS011;31474;45.332;10.230;2023-06-10T11:29:09;10.60;;;4.90;;
45764;SDS011;31474;45.332;10.230;2023-06-10T11:31:38;9.40;;;4.97;;
45764;SDS011;31474;45.332;10.230;2023-06-10T11:34:06;9.55;;;4.28;;
45764;SDS011;31474;45.332;10.230;2023-06-10T11:36:41;8.18;;;4.25;;
45764;SDS011;31474;45.332;10.230;2023-06-10T11:39:10;6.15;;;4.65;;
45764;SDS011;31474;45.332;10.230;2023-06-10T11:41:37;7.80;;;4.68;;
45764;SDS011;31474;45.332;10.230;2023-06-10T11:44:05;8.15;;;4.07;;
45764;SDS011;31474;45.332;10.230;2023-06-10T11:46:34;6.63;;;4.30;;
45764;SDS011;31474;45.332;10.230;2023-06-10T11:49:00;7.25;;;5.53;;
45764;SDS011;31474;45.332;10.230;2023-06-10T11:51:37;7.85;;;5.28;;
45764;SDS011;31474;45.332;10.230;2023-06-10T11:54:06;6.57;;;4.47;;
45764;SDS011;31474;45.332;10.230;2023-06-10T11:56:34;6.10;;;4.43;;
45764;SDS011;31474;45.332;10.230;2023-06-10T11:59:01;6.97;;;4.63;;
45764;SDS011;31474;45.332;10.230;2023-06-10T12:01:35;9.30;;;4.38;;
45764;SDS011;31474;45.332;10.230;2023-06-10T12:04:03;9.65;;;4.47;;
45764;SDS011;31474;45.332;10.230;2023-06-10T12:09:05;7.07;;;4.72;;
45764;SDS011;31474;45.332;10.230;2023-06-10T12:12:06;13.70;;;4.88;;
45764;SDS011;31474;45.332;10.230;2023-06-10T12:14:51;6.80;;;4.97;;
45764;SDS011;31474;45.332;10.230;2023-06-10T12:17:44;8.32;;;4.80;;
45764;SDS011;31474;45.332;10.230;2023-06-10T12:20:23;9.82;;;5.13;;
45764;SDS011;31474;45.332;10.230;2023-06-10T12:22:50;7.15;;;5.10;;
45764;SDS011;31474;45.332;10.230;2023-06-10T12:25:16;8.68;;;5.28;;
45764;SDS011;31474;45.332;10.230;2023-06-10T12:27:51;7.75;;;5.45;;
45764;SDS011;31474;45.332;10.230;2023-06-10T12:30:19;8.57;;;5.65;;
45764;SDS011;31474;45.332;10.230;2023-06-10T12:32:46;8.95;;;5.38;;
45764;SDS011;31474;45.332;10.230;2023-06-10T12:35:17;7.35;;;4.85;;
45764;SDS011;31474;45.332;10.230;2023-06-10T12:37:57;5.43;;;4.30;;
45764;SDS011;31474;45.332;10.230;2023-06-10T12:40:29;6.20;;;4.22;;
45764;SDS011;31474;45.332;10.230;2023-06-10T12:42:59;7.30;;;4.18;;
45764;SDS011;31474;45.332;10.230;2023-06-10T12:45:35;6.13;;;4.32;;
45764;SDS011;31474;45.332;10.230;2023-06-10T12:48:08;7.53;;;3.88;;
45764;SDS011;31474;45.332;10.230;2023-06-10T12:50:38;8.43;;;3.65;;
45764;SDS011;31474;45.332;10.230;2023-06-10T12:53:06;5.40;;;3.60;;
45764;SDS011;31474;45.332;10.230;2023-06-10T12:55:32;8.38;;;3.28;;
45764;SDS011;31474;45.332;10.230;2023-06-10T12:57:58;4.55;;;2.90;;
45764;SDS011;31474;45.332;10.230;2023-06-10T13:00:25;6.57;;;2.83;;
45764;SDS011;31474;45.332;10.230;2023-06-10T13:02:53;4.32;;;1.98;;
45764;SDS011;31474;45.332;10.230;2023-06-10T13:05:19;3.55;;;2.10;;
45764;SDS011;31474;45.332;10.230;2023-06-10T13:07:45;6.80;;;2.42;;
45764;SDS011;31474;45.332;10.230;2023-06-10T13:10:15;3.85;;;2.38;;
45764;SDS011;31474;45.332;10.230;2023-06-10T13:12:44;5.18;;;2.38;;
45764;SDS011;31474;45.332;10.230;2023-06-10T13:15:11;4.22;;;2.20;;
45764;SDS011;31474;45.332;10.230;2023-06-10T13:17:37;5.72;;;2.40;;
45764;SDS011;31474;45.332;10.230;2023-06-10T13:20:04;4.78;;;2.30;;
45764;SDS011;31474;45.332;10.230;2023-06-10T13:22:32;3.35;;;2.55;;
45764;SDS011;31474;45.332;10.230;2023-06-10T13:25:01;4.90;;;2.92;;
45764;SDS011;31474;45.332;10.230;2023-06-10T13:27:31;2.63;;;1.42;;
45764;SDS011;31474;45.332;10.230;2023-06-10T13:29:57;3.50;;;1.30;;
45764;SDS011;31474;45.332;10.230;2023-06-10T13:32:23;3.03;;;1.70;;
45764;SDS011;31474;45.332;10.230;2023-06-10T13:34:49;3.38;;;2.45;;
45764;SDS011;31474;45.332;10.230;2023-06-10T13:37:15;5.15;;;2.85;;
45764;SDS011;31474;45.332;10.230;2023-06-10T13:39:43;8.07;;;2.92;;
45764;SDS011;31474;45.332;10.230;2023-06-10T13:42:08;4.88;;;2.80;;
45764;SDS011;31474;45.332;10.230;2023-06-10T13:44:34;4.03;;;3.03;;
45764;SDS011;31474;45.332;10.230;2023-06-10T13:47:01;4.65;;;2.80;;
45764;SDS011;31474;45.332;10.230;2023-06-10T13:49:28;3.83;;;2.35;;
45764;SDS011;31474;45.332;10.230;2023-06-10T13:51:54;5.13;;;2.22;;
45764;SDS011;31474;45.332;10.230;2023-06-10T13:54:19;4.00;;;2.38;;
45764;SDS011;31474;45.332;10.230;2023-06-10T13:56:46;5.18;;;2.33;;
45764;SDS011;31474;45.332;10.230;2023-06-10T13:59:11;4.10;;;2.30;;
45764;SDS011;31474;45.332;10.230;2023-06-10T14:01:37;4.80;;;2.63;;
45764;SDS011;31474;45.332;10.230;2023-06-10T14:04:03;5.00;;;2.83;;
45764;SDS011;31474;45.332;10.230;2023-06-10T14:06:29;5.82;;;2.45;;
45764;SDS011;31474;45.332;10.230;2023-06-10T14:08:55;3.22;;;2.08;;
45764;SDS011;31474;45.332;10.230;2023-06-10T14:11:21;6.15;;;2.40;;
45764;SDS011;31474;45.332;10.230;2023-06-10T14:13:47;5.55;;;2.17;;
45764;SDS011;31474;45.332;10.230;2023-06-10T14:16:12;4.75;;;2.55;;
45764;SDS011;31474;45.332;10.230;2023-06-10T14:18:38;4.93;;;2.80;;
45764;SDS011;31474;45.332;10.230;2023-06-10T14:21:04;5.40;;;3.45;;
45764;SDS011;31474;45.332;10.230;2023-06-10T14:23:29;5.57;;;2.78;;
45764;SDS011;31474;45.332;10.230;2023-06-10T14:25:55;4.75;;;2.80;;
45764;SDS011;31474;45.332;10.230;2023-06-10T14:28:21;5.00;;;3.20;;
45764;SDS011;31474;45.332;10.230;2023-06-10T14:30:47;5.18;;;2.90;;
45764;SDS011;31474;45.332;10.230;2023-06-10T14:33:13;6.10;;;2.85;;
45764;SDS011;31474;45.332;10.230;2023-06-10T14:35:39;5.32;;;3.30;;
45764;SDS011;31474;45.332;10.230;2023-06-10T14:38:04;3.22;;;2.45;;
45764;SDS011;31474;45.332;10.230;2023-06-10T14:40:30;5.13;;;2.60;;
45764;SDS011;31474;45.332;10.230;2023-06-10T14:42:56;3.35;;;2.55;;
45764;SDS011;31474;45.332;10.230;2023-06-10T14:45:22;6.95;;;2.90;;
45764;SDS011;31474;45.332;10.230;2023-06-10T14:47:49;3.83;;;2.47;;
45764;SDS011;31474;45.332;10.230;2023-06-10T14:50:15;2.78;;;1.90;;